createdAt,value
2017-06-12T00:00:17.974Z,0
2017-06-12T00:01:27.185Z,0
2017-06-12T00:02:36.122Z,0
2017-06-12T00:03:45.009Z,0
2017-06-12T00:04:54.226Z,0
2017-06-12T00:06:03.118Z,0
2017-06-12T00:07:12.018Z,0
2017-06-12T00:08:21.206Z,0
2017-06-12T00:09:30.092Z,0
2017-06-12T00:10:39.308Z,0
2017-06-12T00:11:48.526Z,0
2017-06-12T00:12:57.423Z,0
2017-06-12T00:14:06.937Z,0
2017-06-12T00:15:16.478Z,0
2017-06-12T00:16:25.369Z,0
2017-06-12T00:17:34.258Z,0
2017-06-12T00:18:43.157Z,0
2017-06-12T00:19:52.049Z,0
2017-06-12T00:21:00.937Z,0
2017-06-12T00:22:10.151Z,0
2017-06-12T00:23:20.016Z,0
2017-06-12T00:24:29.226Z,0
2017-06-12T00:25:38.261Z,0
2017-06-12T00:26:47.480Z,0
2017-06-12T00:27:56.373Z,0
2017-06-12T00:29:05.917Z,0
2017-06-12T00:30:15.126Z,0
2017-06-12T00:31:24.066Z,0
2017-06-12T00:32:32.958Z,0
2017-06-12T00:33:41.849Z,0
2017-06-12T00:34:50.735Z,0
2017-06-12T00:36:00.273Z,0
2017-06-12T00:37:09.216Z,0
2017-06-12T00:38:18.103Z,0
2017-06-12T00:39:26.992Z,0
2017-06-12T00:40:35.883Z,0
2017-06-12T00:41:45.099Z,0
2017-06-12T00:42:54.292Z,0
2017-06-12T00:44:03.506Z,0
2017-06-12T00:45:12.394Z,0
2017-06-12T00:46:21.286Z,0
2017-06-12T00:47:30.175Z,0
2017-06-12T00:48:39.438Z,0
2017-06-12T00:49:48.651Z,0
2017-06-12T00:50:57.541Z,0
2017-06-12T00:52:06.782Z,0
2017-06-12T00:53:15.673Z,0
2017-06-12T00:54:24.664Z,0
2017-06-12T00:55:33.560Z,0
2017-06-12T00:56:42.448Z,0
2017-06-12T00:57:51.659Z,0
2017-06-12T00:59:00.874Z,0
2017-06-12T01:00:09.868Z,0
2017-06-12T01:01:18.758Z,0
2017-06-12T01:02:27.649Z,0
2017-06-12T01:03:36.869Z,0
2017-06-12T01:04:46.408Z,0
2017-06-12T01:05:55.295Z,0
2017-06-12T01:07:04.185Z,0
2017-06-12T01:08:13.072Z,0
2017-06-12T01:09:22.282Z,0
2017-06-12T01:10:31.173Z,0
2017-06-12T01:11:40.359Z,0
2017-06-12T01:12:49.574Z,0
2017-06-12T01:13:58.468Z,0
2017-06-12T01:15:07.677Z,0
2017-06-12T01:16:16.567Z,0
2017-06-12T01:17:25.935Z,0
2017-06-12T01:18:35.146Z,0
2017-06-12T01:19:44.036Z,0
2017-06-12T01:20:52.926Z,0
2017-06-12T01:22:01.819Z,0
2017-06-12T01:23:10.854Z,0
2017-06-12T01:24:20.067Z,0
2017-06-12T01:25:29.282Z,0
2017-06-12T01:26:38.169Z,0
2017-06-12T01:27:47.059Z,0
2017-06-12T01:28:56.098Z,0
2017-06-12T01:30:04.992Z,0
2017-06-12T01:31:13.884Z,0
2017-06-12T01:32:23.101Z,0
2017-06-12T01:33:31.992Z,0
2017-06-12T01:34:41.635Z,0
2017-06-12T01:35:50.847Z,0
2017-06-12T01:36:59.740Z,0
2017-06-12T01:38:09.275Z,0
2017-06-12T01:39:18.499Z,0
2017-06-12T01:40:27.439Z,0
2017-06-12T01:41:36.328Z,0
2017-06-12T01:42:45.216Z,0
2017-06-12T01:43:54.129Z,0
2017-06-12T01:45:03.019Z,0
2017-06-12T01:46:12.434Z,0
2017-06-12T01:47:21.650Z,0
2017-06-12T01:48:30.858Z,0
2017-06-12T01:49:39.748Z,0
2017-06-12T01:50:48.643Z,0
2017-06-12T01:51:57.686Z,0
2017-06-12T01:53:06.574Z,0
2017-06-12T01:54:15.469Z,0
2017-06-12T01:55:24.678Z,0
2017-06-12T01:56:33.566Z,0
2017-06-12T01:57:42.933Z,0
2017-06-12T01:58:52.145Z,0
2017-06-12T02:00:01.035Z,0
2017-06-12T02:01:09.925Z,0
2017-06-12T02:02:19.142Z,0
2017-06-12T02:03:28.725Z,0
2017-06-12T02:04:37.609Z,0
2017-06-12T02:05:46.498Z,0
2017-06-12T02:06:55.391Z,0
2017-06-12T02:08:04.925Z,0
2017-06-12T02:09:14.363Z,0
2017-06-12T02:10:23.253Z,0
2017-06-12T02:11:32.471Z,0
2017-06-12T02:12:41.686Z,0
2017-06-12T02:13:50.899Z,0
2017-06-12T02:15:00.361Z,0
2017-06-12T02:16:09.575Z,0
2017-06-12T02:17:19.109Z,0
2017-06-12T02:18:28.321Z,0
2017-06-12T02:19:37.538Z,0
2017-06-12T02:20:46.429Z,4
2017-06-12T02:21:55.317Z,4
2017-06-12T02:23:04.207Z,4
2017-06-12T02:24:13.095Z,0
2017-06-12T02:25:22.307Z,4
2017-06-12T02:26:31.496Z,4
2017-06-12T02:27:40.381Z,4
2017-06-12T02:28:49.590Z,8
2017-06-12T02:29:58.812Z,4
2017-06-12T02:31:07.698Z,8
2017-06-12T02:32:17.215Z,8
2017-06-12T02:33:26.430Z,8
2017-06-12T02:34:35.672Z,8
2017-06-12T02:35:44.560Z,8
2017-06-12T02:36:53.772Z,8
2017-06-12T02:38:03.088Z,12
2017-06-12T02:39:11.975Z,16
2017-06-12T02:40:21.190Z,16
2017-06-12T02:41:30.407Z,16
2017-06-12T02:42:39.297Z,20
2017-06-12T02:43:48.238Z,24
2017-06-12T02:44:57.775Z,24
2017-06-12T02:46:06.663Z,28
2017-06-12T02:47:15.888Z,32
2017-06-12T02:48:24.774Z,32
2017-06-12T02:49:33.660Z,36
2017-06-12T02:50:42.874Z,40
2017-06-12T02:51:51.761Z,44
2017-06-12T02:53:00.652Z,48
2017-06-12T02:54:09.866Z,52
2017-06-12T02:55:19.125Z,60
2017-06-12T02:56:28.014Z,64
2017-06-12T02:57:37.223Z,68
2017-06-12T02:58:46.111Z,76
2017-06-12T02:59:55.000Z,80
2017-06-12T03:01:03.946Z,84
2017-06-12T03:02:13.482Z,96
2017-06-12T03:03:22.370Z,104
2017-06-12T03:04:31.589Z,112
2017-06-12T03:05:40.800Z,116
2017-06-12T03:06:49.833Z,124
2017-06-12T03:07:58.725Z,136
2017-06-12T03:09:07.611Z,144
2017-06-12T03:10:16.834Z,152
2017-06-12T03:11:25.719Z,164
2017-06-12T03:12:34.761Z,168
2017-06-12T03:13:43.971Z,184
2017-06-12T03:14:52.860Z,200
2017-06-12T03:16:01.751Z,212
2017-06-12T03:17:10.963Z,220
2017-06-12T03:18:19.998Z,244
2017-06-12T03:19:28.887Z,260
2017-06-12T03:20:37.773Z,256
2017-06-12T03:21:47.312Z,264
2017-06-12T03:22:56.530Z,272
2017-06-12T03:24:05.893Z,280
2017-06-12T03:25:15.432Z,288
2017-06-12T03:26:24.324Z,312
2017-06-12T03:27:33.212Z,344
2017-06-12T03:28:42.101Z,392
2017-06-12T03:29:50.990Z,372
2017-06-12T03:30:59.878Z,368
2017-06-12T03:32:08.767Z,348
2017-06-12T03:33:17.980Z,364
2017-06-12T03:34:26.867Z,396
2017-06-12T03:35:36.053Z,408
2017-06-12T03:36:44.940Z,416
2017-06-12T03:37:54.155Z,460
2017-06-12T03:39:03.369Z,468
2017-06-12T03:40:12.261Z,560
2017-06-12T03:41:21.149Z,692
2017-06-12T03:42:30.360Z,536
2017-06-12T03:43:39.573Z,448
2017-06-12T03:44:48.466Z,468
2017-06-12T03:45:57.681Z,540
2017-06-12T03:47:06.797Z,588
2017-06-12T03:48:16.013Z,528
2017-06-12T03:49:24.905Z,524
2017-06-12T03:50:33.795Z,552
2017-06-12T03:51:42.683Z,580
2017-06-12T03:52:51.899Z,676
2017-06-12T03:54:01.108Z,976
2017-06-12T03:55:09.995Z,744
2017-06-12T03:56:18.883Z,712
2017-06-12T03:57:28.097Z,672
2017-06-12T03:58:37.374Z,676
2017-06-12T03:59:46.915Z,852
2017-06-12T04:00:56.453Z,736
2017-06-12T04:02:05.338Z,596
2017-06-12T04:03:14.226Z,608
2017-06-12T04:04:23.262Z,616
2017-06-12T04:05:32.474Z,628
2017-06-12T04:06:41.361Z,636
2017-06-12T04:07:50.255Z,652
2017-06-12T04:08:59.147Z,684
2017-06-12T04:10:08.519Z,772
2017-06-12T04:11:17.408Z,868
2017-06-12T04:12:26.623Z,876
2017-06-12T04:13:35.509Z,804
2017-06-12T04:14:44.396Z,804
2017-06-12T04:15:53.332Z,820
2017-06-12T04:17:02.216Z,816
2017-06-12T04:18:11.429Z,808
2017-06-12T04:19:20.642Z,768
2017-06-12T04:20:29.853Z,832
2017-06-12T04:21:39.043Z,840
2017-06-12T04:22:48.250Z,852
2017-06-12T04:23:57.142Z,852
2017-06-12T04:25:06.036Z,856
2017-06-12T04:26:14.924Z,860
2017-06-12T04:27:23.807Z,868
2017-06-12T04:28:32.695Z,876
2017-06-12T04:29:41.911Z,880
2017-06-12T04:30:50.796Z,888
2017-06-12T04:31:59.683Z,896
2017-06-12T04:33:08.623Z,908
2017-06-12T04:34:17.831Z,920
2017-06-12T04:35:26.719Z,936
2017-06-12T04:36:35.934Z,956
2017-06-12T04:37:45.143Z,992
2017-06-12T04:38:54.126Z,1036
2017-06-12T04:40:03.336Z,996
2017-06-12T04:41:12.548Z,956
2017-06-12T04:42:21.437Z,980
2017-06-12T04:43:30.329Z,1016
2017-06-12T04:44:39.542Z,1064
2017-06-12T04:45:48.434Z,1116
2017-06-12T04:46:57.647Z,1116
2017-06-12T04:48:06.535Z,1028
2017-06-12T04:49:16.086Z,996
2017-06-12T04:50:24.996Z,1044
2017-06-12T04:51:33.886Z,1052
2017-06-12T04:52:42.780Z,1104
2017-06-12T04:53:51.670Z,1248
2017-06-12T04:55:00.883Z,1128
2017-06-12T04:56:09.771Z,988
2017-06-12T04:57:18.658Z,964
2017-06-12T04:58:27.869Z,964
2017-06-12T04:59:36.766Z,944
2017-06-12T05:00:46.198Z,1068
2017-06-12T05:01:55.102Z,1132
2017-06-12T05:03:04.001Z,1140
2017-06-12T05:04:12.890Z,1140
2017-06-12T05:05:22.108Z,1076
2017-06-12T05:06:30.998Z,1072
2017-06-12T05:07:39.887Z,1072
2017-06-12T05:08:48.799Z,1100
2017-06-12T05:09:57.791Z,1140
2017-06-12T05:11:06.679Z,1272
2017-06-12T05:12:15.892Z,1524
2017-06-12T05:13:25.105Z,1924
2017-06-12T05:14:33.996Z,2784
2017-06-12T05:15:43.210Z,2376
2017-06-12T05:16:52.102Z,1888
2017-06-12T05:18:00.993Z,1748
2017-06-12T05:19:10.527Z,1512
2017-06-12T05:20:19.517Z,1416
2017-06-12T05:21:28.407Z,1576
2017-06-12T05:22:37.621Z,1764
2017-06-12T05:23:46.508Z,1744
2017-06-12T05:24:55.718Z,1860
2017-06-12T05:26:05.408Z,2428
2017-06-12T05:27:14.623Z,2992
2017-06-12T05:28:23.840Z,2396
2017-06-12T05:29:32.731Z,1832
2017-06-12T05:30:41.623Z,1836
2017-06-12T05:31:51.215Z,2580
2017-06-12T05:33:00.433Z,2676
2017-06-12T05:34:09.330Z,1500
2017-06-12T05:35:18.220Z,1936
2017-06-12T05:36:27.112Z,2672
2017-06-12T05:37:36.378Z,2908
2017-06-12T05:38:45.918Z,3696
2017-06-12T05:39:55.455Z,3880
2017-06-12T05:41:04.339Z,2164
2017-06-12T05:42:13.228Z,2324
2017-06-12T05:43:22.268Z,3052
2017-06-12T05:44:31.156Z,3560
2017-06-12T05:45:40.043Z,3880
2017-06-12T05:46:48.934Z,3160
2017-06-12T05:47:57.829Z,4056
2017-06-12T05:49:06.818Z,2668
2017-06-12T05:50:15.712Z,2092
2017-06-12T05:51:25.126Z,2516
2017-06-12T05:52:34.346Z,2104
2017-06-12T05:53:43.254Z,2192
2017-06-12T05:54:52.774Z,3716
2017-06-12T05:56:01.990Z,3252
2017-06-12T05:57:10.887Z,2828
2017-06-12T05:58:19.785Z,2960
2017-06-12T05:59:28.688Z,3184
2017-06-12T06:00:38.001Z,2672
2017-06-12T06:01:47.218Z,3232
2017-06-12T06:02:56.758Z,3884
2017-06-12T06:04:05.652Z,3708
2017-06-12T06:05:14.545Z,3596
2017-06-12T06:06:23.685Z,3272
2017-06-12T06:07:32.577Z,3308
2017-06-12T06:08:41.466Z,2620
2017-06-12T06:09:50.679Z,1820
2017-06-12T06:10:59.611Z,1780
2017-06-12T06:12:08.830Z,2288
2017-06-12T06:13:17.718Z,2040
2017-06-12T06:14:26.606Z,1832
2017-06-12T06:15:35.497Z,2300
2017-06-12T06:16:44.385Z,3048
2017-06-12T06:17:53.374Z,3940
2017-06-12T06:19:03.227Z,4752
2017-06-12T06:20:12.250Z,1980
2017-06-12T06:21:22.164Z,1596
2017-06-12T06:22:31.192Z,1916
2017-06-12T06:23:40.751Z,1696
2017-06-12T06:24:50.055Z,2936
2017-06-12T06:25:59.244Z,2152
2017-06-12T06:27:08.512Z,2244
2017-06-12T06:28:18.062Z,1864
2017-06-12T06:29:27.192Z,2396
2017-06-12T06:30:36.118Z,2768
2017-06-12T06:31:46.611Z,2512
2017-06-12T06:32:55.509Z,3212
2017-06-12T06:34:04.544Z,3800
2017-06-12T06:35:13.932Z,2980
2017-06-12T06:36:22.849Z,2640
2017-06-12T06:37:31.745Z,3880
2017-06-12T06:38:40.675Z,3108
2017-06-12T06:39:50.041Z,2884
2017-06-12T06:40:59.435Z,1600
2017-06-12T06:42:08.325Z,1728
2017-06-12T06:43:17.541Z,2208
2017-06-12T06:44:26.435Z,1720
2017-06-12T06:45:35.369Z,2248
2017-06-12T06:46:45.082Z,2584
2017-06-12T06:47:54.075Z,3484
2017-06-12T06:49:03.525Z,3636
2017-06-12T06:50:12.780Z,4956
2017-06-12T06:51:21.674Z,3020
2017-06-12T06:52:30.565Z,2076
2017-06-12T06:53:39.989Z,3256
2017-06-12T06:54:48.880Z,3552
2017-06-12T06:55:58.148Z,2000
2017-06-12T06:57:07.448Z,1936
2017-06-12T06:58:16.387Z,2996
2017-06-12T06:59:25.665Z,4096
2017-06-12T07:00:34.898Z,5680
2017-06-12T07:01:43.791Z,3940
2017-06-12T07:02:53.100Z,3272
2017-06-12T07:04:02.512Z,4772
2017-06-12T07:05:11.412Z,6808
2017-06-12T07:06:20.305Z,4212
2017-06-12T07:07:29.201Z,3572
2017-06-12T07:08:38.450Z,3288
2017-06-12T07:09:47.387Z,2924
2017-06-12T07:10:56.715Z,3872
2017-06-12T07:12:05.615Z,4040
2017-06-12T07:13:14.510Z,4020
2017-06-12T07:14:23.399Z,3540
2017-06-12T07:15:32.457Z,3080
2017-06-12T07:16:41.360Z,3404
2017-06-12T07:17:50.257Z,4524
2017-06-12T07:18:59.468Z,2252
2017-06-12T07:20:08.794Z,1780
2017-06-12T07:21:17.813Z,1816
2017-06-12T07:22:27.033Z,1928
2017-06-12T07:23:36.572Z,2840
2017-06-12T07:24:45.791Z,2712
2017-06-12T07:25:54.681Z,2948
2017-06-12T07:27:03.871Z,2556
2017-06-12T07:28:12.763Z,1900
2017-06-12T07:29:21.979Z,1824
2017-06-12T07:30:30.875Z,2140
2017-06-12T07:31:39.768Z,2256
2017-06-12T07:32:49.258Z,2892
2017-06-12T07:33:58.146Z,2256
2017-06-12T07:35:07.984Z,2052
2017-06-12T07:36:17.198Z,2520
2017-06-12T07:37:26.091Z,3380
2017-06-12T07:38:35.465Z,5056
2017-06-12T07:39:44.358Z,5108
2017-06-12T07:40:53.578Z,5808
2017-06-12T07:42:02.807Z,3596
2017-06-12T07:43:11.697Z,2420
2017-06-12T07:44:20.585Z,2452
2017-06-12T07:45:29.476Z,2768
2017-06-12T07:46:38.369Z,4812
2017-06-12T07:47:47.585Z,4980
2017-06-12T07:48:56.479Z,3944
2017-06-12T07:50:05.424Z,4540
2017-06-12T07:51:14.710Z,4884
2017-06-12T07:52:23.609Z,5072
2017-06-12T07:53:32.497Z,3212
2017-06-12T07:54:41.715Z,1944
2017-06-12T07:55:50.755Z,1528
2017-06-12T07:57:00.511Z,1496
2017-06-12T07:58:09.405Z,1448
2017-06-12T07:59:18.310Z,1548
2017-06-12T08:00:27.201Z,2040
2017-06-12T08:01:36.571Z,3200
2017-06-12T08:02:45.541Z,3748
2017-06-12T08:03:54.430Z,5112
2017-06-12T08:05:03.972Z,5672
2017-06-12T08:06:12.862Z,6840
2017-06-12T08:07:22.144Z,5600
2017-06-12T08:08:31.363Z,4976
2017-06-12T08:09:40.255Z,5728
2017-06-12T08:10:49.148Z,5164
2017-06-12T08:11:58.036Z,4956
2017-06-12T08:13:06.979Z,4904
2017-06-12T08:14:16.193Z,6652
2017-06-12T08:15:25.409Z,5396
2017-06-12T08:16:34.626Z,4476
2017-06-12T08:17:43.843Z,3972
2017-06-12T08:18:52.833Z,5076
2017-06-12T08:20:01.725Z,7180
2017-06-12T08:21:10.617Z,6556
2017-06-12T08:22:20.169Z,5992
2017-06-12T08:23:29.062Z,6256
2017-06-12T08:24:38.203Z,5992
2017-06-12T08:25:47.414Z,6444
2017-06-12T08:26:56.631Z,7324
2017-06-12T08:28:05.522Z,6656
2017-06-12T08:29:14.738Z,5712
2017-06-12T08:30:23.784Z,4360
2017-06-12T08:31:33.006Z,4020
2017-06-12T08:32:42.223Z,3472
2017-06-12T08:33:51.765Z,4076
2017-06-12T08:35:00.982Z,5264
2017-06-12T08:36:10.276Z,6172
2017-06-12T08:37:19.491Z,6464
2017-06-12T08:38:28.710Z,6480
2017-06-12T08:39:37.930Z,6084
2017-06-12T08:40:47.145Z,7528
2017-06-12T08:41:56.088Z,6392
2017-06-12T08:43:05.002Z,5500
2017-06-12T08:44:13.899Z,5564
2017-06-12T08:45:22.794Z,6956
2017-06-12T08:46:31.686Z,7484
2017-06-12T08:47:40.732Z,7924
2017-06-12T08:48:49.946Z,7068
2017-06-12T08:49:59.485Z,6724
2017-06-12T08:51:08.377Z,7264
2017-06-12T08:52:17.594Z,7564
2017-06-12T08:53:26.540Z,7268
2017-06-12T08:54:35.760Z,7412
2017-06-12T08:55:44.655Z,7032
2017-06-12T08:56:53.548Z,7840
2017-06-12T08:58:02.442Z,8520
2017-06-12T08:59:11.382Z,8204
2017-06-12T09:00:20.601Z,7696
2017-06-12T09:01:29.492Z,8276
2017-06-12T09:02:38.707Z,7236
2017-06-12T09:03:47.923Z,8060
2017-06-12T09:04:56.817Z,7388
2017-06-12T09:06:05.709Z,6800
2017-06-12T09:07:15.249Z,7164
2017-06-12T09:08:24.141Z,7172
2017-06-12T09:09:33.033Z,5544
2017-06-12T09:10:42.252Z,5652
2017-06-12T09:11:51.147Z,5960
2017-06-12T09:13:00.361Z,5792
2017-06-12T09:14:09.256Z,5508
2017-06-12T09:15:18.155Z,5460
2017-06-12T09:16:27.049Z,5620
2017-06-12T09:17:35.941Z,6964
2017-06-12T09:18:44.833Z,7372
2017-06-12T09:19:53.724Z,6440
2017-06-12T09:21:02.942Z,6584
2017-06-12T09:22:12.361Z,7676
2017-06-12T09:23:21.582Z,8852
2017-06-12T09:24:30.799Z,8312
2017-06-12T09:25:40.019Z,9164
2017-06-12T09:26:49.240Z,9560
2017-06-12T09:27:58.287Z,9488
2017-06-12T09:29:07.184Z,8988
2017-06-12T09:30:16.076Z,8272
2017-06-12T09:31:24.974Z,7844
2017-06-12T09:32:34.193Z,9112
2017-06-12T09:33:43.141Z,10256
2017-06-12T09:34:52.396Z,10040
2017-06-12T09:36:01.611Z,9964
2017-06-12T09:37:10.826Z,9484
2017-06-12T09:38:19.720Z,8900
2017-06-12T09:39:28.709Z,8872
2017-06-12T09:40:37.598Z,8764
2017-06-12T09:41:46.486Z,9972
2017-06-12T09:42:55.378Z,7896
2017-06-12T09:44:04.273Z,10564
2017-06-12T09:45:13.650Z,10324
2017-06-12T09:46:22.870Z,9048
2017-06-12T09:47:31.774Z,11380
2017-06-12T09:48:40.667Z,11108
2017-06-12T09:49:49.890Z,10288
2017-06-12T09:50:58.986Z,10380
2017-06-12T09:52:08.529Z,10720
2017-06-12T09:53:17.753Z,10832
2017-06-12T09:54:26.651Z,10104
2017-06-12T09:55:35.549Z,7772
2017-06-12T09:56:44.865Z,9548
2017-06-12T09:57:54.082Z,7264
2017-06-12T09:59:02.974Z,7396
2017-06-12T10:00:11.878Z,7296
2017-06-12T10:01:20.776Z,8036
2017-06-12T10:02:29.821Z,7536
2017-06-12T10:03:38.721Z,9060
2017-06-12T10:04:48.267Z,9172
2017-06-12T10:05:57.828Z,7428
2017-06-12T10:07:06.721Z,8276
2017-06-12T10:08:15.916Z,8612
2017-06-12T10:09:24.808Z,10612
2017-06-12T10:10:33.700Z,10776
2017-06-12T10:11:42.592Z,9760
2017-06-12T10:12:51.496Z,11508
2017-06-12T10:14:00.544Z,12420
2017-06-12T10:15:09.761Z,11544
2017-06-12T10:16:18.978Z,10384
2017-06-12T10:17:27.876Z,10104
2017-06-12T10:18:36.768Z,9236
2017-06-12T10:19:45.711Z,7536
2017-06-12T10:20:54.606Z,5948
2017-06-12T10:22:03.503Z,3676
2017-06-12T10:23:12.424Z,3480
2017-06-12T10:24:21.320Z,2676
2017-06-12T10:25:30.366Z,1904
2017-06-12T10:26:39.261Z,2616
2017-06-12T10:27:48.479Z,4672
2017-06-12T10:28:57.699Z,5464
2017-06-12T10:30:06.918Z,4628
2017-06-12T10:31:15.912Z,4128
2017-06-12T10:32:24.808Z,3644
2017-06-12T10:33:33.699Z,3828
2017-06-12T10:34:42.591Z,4656
2017-06-12T10:35:51.814Z,4636
2017-06-12T10:37:01.133Z,4780
2017-06-12T10:38:10.025Z,5468
2017-06-12T10:39:19.245Z,3196
2017-06-12T10:40:28.462Z,4004
2017-06-12T10:41:37.353Z,4788
2017-06-12T10:42:46.823Z,3820
2017-06-12T10:43:55.715Z,6148
2017-06-12T10:45:04.607Z,6676
2017-06-12T10:46:13.497Z,6692
2017-06-12T10:47:22.711Z,7200
2017-06-12T10:48:31.977Z,6980
2017-06-12T10:49:40.866Z,7440
2017-06-12T10:50:49.761Z,4820
2017-06-12T10:51:58.983Z,5104
2017-06-12T10:53:07.875Z,4436
2017-06-12T10:54:16.815Z,3808
2017-06-12T10:55:25.710Z,3468
2017-06-12T10:56:34.925Z,3428
2017-06-12T10:57:43.816Z,3408
2017-06-12T10:58:53.031Z,3572
2017-06-12T11:00:02.557Z,3640
2017-06-12T11:01:11.457Z,5908
2017-06-12T11:02:20.677Z,6672
2017-06-12T11:03:29.572Z,6352
2017-06-12T11:04:38.789Z,6244
2017-06-12T11:05:48.053Z,5248
2017-06-12T11:06:56.945Z,4940
2017-06-12T11:08:06.165Z,3796
2017-06-12T11:09:15.408Z,2796
2017-06-12T11:10:24.304Z,2056
2017-06-12T11:11:33.299Z,1916
2017-06-12T11:12:42.513Z,1872
2017-06-12T11:13:51.406Z,2032
2017-06-12T11:15:00.299Z,3012
2017-06-12T11:16:09.189Z,4100
2017-06-12T11:17:18.710Z,4548
2017-06-12T11:18:27.602Z,4696
2017-06-12T11:19:36.495Z,6308
2017-06-12T11:20:45.714Z,10308
2017-06-12T11:21:55.254Z,8544
2017-06-12T11:23:04.198Z,8624
2017-06-12T11:24:13.090Z,8948
2017-06-12T11:25:21.979Z,9176
2017-06-12T11:26:30.868Z,8844
2017-06-12T11:27:39.764Z,10024
2017-06-12T11:28:49.279Z,12348
2017-06-12T11:29:58.175Z,13288
2017-06-12T11:31:07.398Z,15372
2017-06-12T11:32:16.613Z,15248
2017-06-12T11:33:25.837Z,13612
2017-06-12T11:34:34.783Z,11344
2017-06-12T11:35:44.002Z,9660
2017-06-12T11:36:53.218Z,7956
2017-06-12T11:38:02.435Z,6504
2017-06-12T11:39:11.333Z,4424
2017-06-12T11:40:20.537Z,4376
2017-06-12T11:41:29.751Z,4648
2017-06-12T11:42:38.965Z,6496
2017-06-12T11:43:48.193Z,7040
2017-06-12T11:44:57.415Z,14548
2017-06-12T11:46:06.570Z,14064
2017-06-12T11:47:15.502Z,11332
2017-06-12T11:48:24.717Z,12964
2017-06-12T11:49:33.674Z,14272
2017-06-12T11:50:42.570Z,17856
2017-06-12T11:51:51.668Z,16288
2017-06-12T11:53:00.561Z,14944
2017-06-12T11:54:09.456Z,17024
2017-06-12T11:55:18.354Z,65920
2017-06-12T11:56:27.583Z,99104
2017-06-12T11:57:37.281Z,18720
2017-06-12T11:58:46.195Z,30944
2017-06-12T11:59:55.093Z,102624
2017-06-12T12:01:03.990Z,97312
2017-06-12T12:02:13.210Z,96448
2017-06-12T12:03:22.346Z,42720
2017-06-12T12:04:31.255Z,90144
2017-06-12T12:05:40.161Z,87424
2017-06-12T12:06:49.416Z,9376
2017-06-12T12:07:58.314Z,86048
2017-06-12T12:09:07.463Z,93344
2017-06-12T12:10:16.362Z,11880
2017-06-12T12:11:25.265Z,12888
2017-06-12T12:12:34.210Z,14560
2017-06-12T12:13:43.113Z,16896
2017-06-12T12:14:52.663Z,22656
2017-06-12T12:16:01.899Z,15592
2017-06-12T12:17:10.815Z,15784
2017-06-12T12:18:20.689Z,12536
2017-06-12T12:19:29.642Z,9920
2017-06-12T12:20:38.911Z,10412
2017-06-12T12:21:48.144Z,9064
2017-06-12T12:22:57.369Z,9364
2017-06-12T12:24:06.587Z,8588
2017-06-12T12:25:15.485Z,8976
2017-06-12T12:26:24.757Z,10536
2017-06-12T12:27:33.650Z,10132
2017-06-12T12:28:42.870Z,11088
2017-06-12T12:29:51.796Z,11452
2017-06-12T12:31:00.697Z,13780
2017-06-12T12:32:09.846Z,25056
2017-06-12T12:33:19.067Z,19840
2017-06-12T12:34:28.291Z,10796
2017-06-12T12:35:37.186Z,10376
2017-06-12T12:36:46.106Z,9684
2017-06-12T12:37:55.526Z,12920
2017-06-12T12:39:04.457Z,15292
2017-06-12T12:40:13.377Z,19872
2017-06-12T12:41:22.611Z,14888
2017-06-12T12:42:31.506Z,16108
2017-06-12T12:43:40.399Z,19104
2017-06-12T12:44:49.298Z,29888
2017-06-12T12:45:58.211Z,27008
2017-06-12T12:47:07.119Z,107328
2017-06-12T12:48:16.368Z,96288
2017-06-12T12:49:25.468Z,106944
2017-06-12T12:50:34.744Z,34880
2017-06-12T12:51:43.642Z,117760
2017-06-12T12:52:52.541Z,86560
2017-06-12T12:54:01.439Z,49056
2017-06-12T12:55:10.915Z,25984
2017-06-12T12:56:19.841Z,32800
2017-06-12T12:57:29.067Z,104288
2017-06-12T12:58:37.968Z,106784
2017-06-12T12:59:46.869Z,28864
2017-06-12T13:00:56.349Z,18912
2017-06-12T13:02:05.249Z,8628
2017-06-12T13:03:14.147Z,5512
2017-06-12T13:04:23.053Z,4616
2017-06-12T13:05:31.953Z,6812
2017-06-12T13:06:41.017Z,6748
2017-06-12T13:07:50.245Z,5544
2017-06-12T13:08:59.143Z,4704
2017-06-12T13:10:08.363Z,4452
2017-06-12T13:11:17.260Z,4600
2017-06-12T13:12:26.254Z,6356
2017-06-12T13:13:35.476Z,5580
2017-06-12T13:14:44.378Z,4544
2017-06-12T13:15:53.598Z,4468
2017-06-12T13:17:03.144Z,3172
2017-06-12T13:18:12.245Z,3012
2017-06-12T13:19:21.461Z,3128
2017-06-12T13:20:30.353Z,2468
2017-06-12T13:21:39.253Z,1456
2017-06-12T13:22:48.149Z,996
2017-06-12T13:23:57.197Z,768
2017-06-12T13:25:06.745Z,920
2017-06-12T13:26:15.640Z,776
2017-06-12T13:27:25.181Z,908
2017-06-12T13:28:34.075Z,944
2017-06-12T13:29:43.119Z,836
2017-06-12T13:30:52.344Z,1220
2017-06-12T13:32:01.237Z,1200
2017-06-12T13:33:10.133Z,1468
2017-06-12T13:34:19.350Z,1396
2017-06-12T13:35:28.723Z,1156
2017-06-12T13:36:37.940Z,1216
2017-06-12T13:37:46.837Z,1184
2017-06-12T13:38:55.727Z,1300
2017-06-12T13:40:04.617Z,1636
2017-06-12T13:41:14.172Z,1760
2017-06-12T13:42:23.541Z,1896
2017-06-12T13:43:32.549Z,2068
2017-06-12T13:44:41.493Z,2012
2017-06-12T13:45:50.475Z,2284
2017-06-12T13:46:59.970Z,2512
2017-06-12T13:48:08.871Z,2828
2017-06-12T13:49:18.103Z,3444
2017-06-12T13:50:27.298Z,3704
2017-06-12T13:51:37.109Z,3764
2017-06-12T13:52:46.092Z,3960
2017-06-12T13:53:55.443Z,4056
2017-06-12T13:55:04.374Z,4216
2017-06-12T13:56:13.261Z,4712
2017-06-12T13:57:22.149Z,6184
2017-06-12T13:58:32.339Z,8900
2017-06-12T13:59:41.759Z,8844
2017-06-12T14:00:51.013Z,8668
2017-06-12T14:01:59.903Z,10184
2017-06-12T14:03:09.443Z,12956
2017-06-12T14:04:18.341Z,9572
2017-06-12T14:05:27.250Z,8512
2017-06-12T14:06:36.616Z,7208
2017-06-12T14:07:45.505Z,7436
2017-06-12T14:08:54.418Z,7428
2017-06-12T14:10:03.318Z,6460
2017-06-12T14:11:12.232Z,5660
2017-06-12T14:12:21.274Z,5960
2017-06-12T14:13:30.492Z,6116
2017-06-12T14:14:39.382Z,5920
2017-06-12T14:15:48.276Z,4972
2017-06-12T14:16:57.167Z,4616
2017-06-12T14:18:06.056Z,4048
2017-06-12T14:19:14.946Z,3664
2017-06-12T14:20:23.838Z,4056
2017-06-12T14:21:32.747Z,3488
2017-06-12T14:22:41.635Z,3732
2017-06-12T14:23:50.676Z,3852
2017-06-12T14:24:59.929Z,3184
2017-06-12T14:26:08.820Z,3136
2017-06-12T14:27:18.052Z,2836
2017-06-12T14:28:26.948Z,2796
2017-06-12T14:29:35.892Z,2752
2017-06-12T14:30:44.782Z,2648
2017-06-12T14:31:53.678Z,2620
2017-06-12T14:33:02.899Z,2468
2017-06-12T14:34:11.794Z,2492
2017-06-12T14:35:20.984Z,2396
2017-06-12T14:36:29.879Z,2376
2017-06-12T14:37:38.769Z,2384
2017-06-12T14:38:47.982Z,2604
2017-06-12T14:39:56.883Z,3020
2017-06-12T14:41:06.051Z,3524
2017-06-12T14:42:14.943Z,4168
2017-06-12T14:43:23.832Z,5188
2017-06-12T14:44:32.721Z,7028
2017-06-12T14:45:41.610Z,7464
2017-06-12T14:46:50.603Z,6364
2017-06-12T14:47:59.500Z,5420
2017-06-12T14:49:08.402Z,6084
2017-06-12T14:50:17.295Z,7060
2017-06-12T14:51:26.191Z,7500
2017-06-12T14:52:35.151Z,8060
2017-06-12T14:53:44.051Z,7308
2017-06-12T14:54:53.267Z,7260
2017-06-12T14:56:02.174Z,8076
2017-06-12T14:57:11.410Z,7932
2017-06-12T14:58:20.354Z,7412
2017-06-12T14:59:29.247Z,6968
2017-06-12T15:00:38.470Z,6928
2017-06-12T15:01:47.696Z,6156
2017-06-12T15:02:56.628Z,5412
2017-06-12T15:04:05.848Z,4672
2017-06-12T15:05:15.394Z,4116
2017-06-12T15:06:24.944Z,3740
2017-06-12T15:07:33.842Z,3716
2017-06-12T15:08:43.065Z,3432
2017-06-12T15:09:52.061Z,3728
2017-06-12T15:11:00.952Z,3876
2017-06-12T15:12:10.173Z,4008
2017-06-12T15:13:19.712Z,3808
2017-06-12T15:14:28.603Z,4488
2017-06-12T15:15:37.658Z,4952
2017-06-12T15:16:46.553Z,5324
2017-06-12T15:17:55.444Z,6444
2017-06-12T15:19:04.339Z,7196
2017-06-12T15:20:13.550Z,7716
2017-06-12T15:21:22.819Z,9568
2017-06-12T15:22:31.716Z,11132
2017-06-12T15:23:40.609Z,10140
2017-06-12T15:24:49.506Z,9776
2017-06-12T15:25:58.720Z,33088
2017-06-12T15:27:07.612Z,13136
2017-06-12T15:28:16.509Z,20288
2017-06-12T15:29:25.407Z,26720
2017-06-12T15:30:34.302Z,12228
2017-06-12T15:31:43.203Z,7260
2017-06-12T15:32:52.104Z,5352
2017-06-12T15:34:00.998Z,5288
2017-06-12T15:35:10.220Z,5500
2017-06-12T15:36:19.123Z,4460